Wind from 135 at 0 knots gusting 2

Air temperature 7.8° C
Dewpoint 5.6° C

Last reported at 2014-Apr-16 18:43 UTC.
Time now 2014-Apr-16 19:15 UTC

Location: N 39°27' E 016°16'.
View on Google Maps.

See reports from other nearby stations

Tides Stations Pressure Air Temp Water Temp Dewpoint Dewpoint depression Visibility Wind Speed Wind Dir Waves Ship positions

  
sailing weather and tide predictions

DW3733 Luzzi (cosenza) IT weather

date/time (UTC)wind fromknots sea level pressurealtimeterstation pressurevisibilityair tempwater tempwave heightnotes
2014-Apr-16 18:43 135 0 gusting 2 7.8
2014-Apr-16 18:33 079 1 gusting 2 8.3
2014-Apr-16 18:23 141 8.9
2014-Apr-16 18:13 218 0 gusting 1 8.9
2014-Apr-16 18:03 180 0 gusting 5 9.4
2014-Apr-16 17:53 178 0 gusting 2 9.4
2014-Apr-16 17:43 190 2 gusting 5 9.4
2014-Apr-16 17:33 225 1 gusting 4 9.4
2014-Apr-16 17:23 135 1 gusting 4 9.4
2014-Apr-16 17:13 170 1 gusting 5 10.0
2014-Apr-16 17:03 192 2 gusting 5 10.0
2014-Apr-16 16:53 195 1 gusting 5 10.0
2014-Apr-16 16:43 225 1 gusting 5 10.6
2014-Apr-16 16:33 237 0 gusting 4 10.6
2014-Apr-16 16:23 214 2 gusting 4 10.6
2014-Apr-16 16:13 315 1 gusting 4 10.6
2014-Apr-16 16:03 135 1 gusting 5 10.0
2014-Apr-16 15:53 234 1 gusting 6 10.0
2014-Apr-16 15:43 188 1 gusting 2 10.0
2014-Apr-16 15:33 161 0 gusting 2 10.0
2014-Apr-16 15:23 180 0 gusting 6 10.6
2014-Apr-16 15:13 016 2 gusting 6 10.6
2014-Apr-16 15:03 206 3 gusting 6 10.6
2014-Apr-16 14:53 225 4 gusting 8 11.1
2014-Apr-16 14:43 286 3 gusting 8 11.1
2014-Apr-16 14:33 226 4 gusting 8 11.7
2014-Apr-16 14:23 225 5 gusting 8 11.1
2014-Apr-16 14:13 199 6 gusting 10 11.1
2014-Apr-16 14:03 225 4 gusting 10 11.1
2014-Apr-16 13:53 223 6 gusting 13 11.1
2014-Apr-16 13:43 180 4 gusting 11 11.7
2014-Apr-16 13:33 233 6 gusting 11 11.1
2014-Apr-16 13:23 191 4 gusting 12 10.6
2014-Apr-16 13:13 156 2 gusting 11 10.6
2014-Apr-16 13:03 082 4 gusting 10 9.4
2014-Apr-16 12:53 124 4 gusting 11 9.4
2014-Apr-16 12:43 128 6 gusting 12 9.4
2014-Apr-16 12:33 332 1 gusting 5 9.4
2014-Apr-16 12:23 10.0
2014-Apr-16 12:13 018 5 gusting 15 10.6
2014-Apr-16 12:03 045 8 gusting 17 13.3
2014-Apr-16 11:53 15.0
2014-Apr-16 11:43 318 4 gusting 8 15.6
2014-Apr-16 11:33 071 2 gusting 6 15.6
2014-Apr-16 11:23 019 2 gusting 6 16.1
2014-Apr-16 11:13 074 1 gusting 5 15.6
2014-Apr-16 11:03 15.6
2014-Apr-16 10:53 220 1 gusting 5 15.0
2014-Apr-16 10:43 15.0
2014-Apr-16 10:33 077 2 gusting 6 15.0
2014-Apr-16 10:23 045 1 gusting 6 15.0
2014-Apr-16 10:13 045 1 gusting 5 14.4
2014-Apr-16 10:03 180 0 gusting 6 14.4
2014-Apr-16 09:53 14.4
2014-Apr-16 09:43 064 2 gusting 6 14.4
2014-Apr-16 09:33 323 2 gusting 6 13.9
2014-Apr-16 09:23 051 2 gusting 6 13.9
2014-Apr-16 09:13 13.9
2014-Apr-16 09:03 101 1 gusting 8 13.3
2014-Apr-16 08:53 075 2 gusting 7 13.3
2014-Apr-16 08:43 090 0 gusting 4 12.2
2014-Apr-16 08:33 359 2 gusting 5 11.7
2014-Apr-16 08:23 11.1
2014-Apr-16 08:13 11.7
2014-Apr-16 08:03 270 0 gusting 2 10.6
2014-Apr-16 07:53 006 1 gusting 2 10.6
2014-Apr-16 06:23 338 2 gusting 4 7.8
2014-Apr-16 06:13 186 1 gusting 2 7.2
2014-Apr-15 22:03 225 0 gusting 1 9.4
2014-Apr-15 21:53 059 1 gusting 5 9.4
2014-Apr-15 21:43 9.4
2014-Apr-15 21:33 045 0 gusting 2 10.0
2014-Apr-15 21:23 261 0 gusting 2 10.6
2014-Apr-15 21:13 045 1 gusting 2 10.6
2014-Apr-15 21:03 036 0 gusting 2 11.1
2014-Apr-15 20:53 11.7
2014-Apr-15 20:43 12.2
2014-Apr-15 20:33 353 1 gusting 2 12.8
2014-Apr-15 20:23 348 0 gusting 1 13.3
2014-Apr-15 20:13 022 0 gusting 2 13.9
2014-Apr-15 20:03 13.9
2014-Apr-15 19:53 247 0 gusting 2 14.4
2014-Apr-15 19:43 222 0 gusting 6 14.4
2014-Apr-15 19:33 152 2 gusting 6 15.0
2014-Apr-15 19:23 180 1 gusting 6 15.6
2014-Apr-15 19:13 068 1 gusting 5 15.6
2014-Apr-15 19:03 168 2 gusting 6 15.6
2014-Apr-15 18:53 135 3 gusting 7 16.1
2014-Apr-15 18:43 180 1 gusting 4 16.1
2014-Apr-15 18:33 241 2 gusting 5 16.7
2014-Apr-15 18:23 195 16.7
2014-Apr-15 18:13 150 2 gusting 6 16.1
2014-Apr-15 18:03 315 1 gusting 2 16.7
2014-Apr-15 17:53 213 0 gusting 5 16.7
2014-Apr-15 17:43 200 2 gusting 8 16.7
2014-Apr-15 17:33 274 3 gusting 6 16.7
2014-Apr-15 17:23 180 2 gusting 5 16.7
2014-Apr-15 17:13 180 0 gusting 6 16.7
2014-Apr-15 17:03 302 2 gusting 5 16.7
2014-Apr-15 16:53 197 2 gusting 6 16.1
2014-Apr-15 16:43 268 4 gusting 8 16.7
2014-Apr-15 16:33 180 4 gusting 8 16.7
2014-Apr-15 16:23 095 0 gusting 7 16.7
2014-Apr-15 16:13 230 5 gusting 8 16.7
2014-Apr-15 16:03 225 5 gusting 6 17.2
2014-Apr-15 15:53 188 0 gusting 6 17.2
2014-Apr-15 15:43 180 2 gusting 6 17.8
2014-Apr-15 15:33 180 3 gusting 6 18.3
2014-Apr-15 15:23 225 3 gusting 7 18.9
2014-Apr-15 15:13 198 0 gusting 6 19.4
2014-Apr-15 15:03 225 5 gusting 8 19.4
2014-Apr-15 14:53 015 2 gusting 6 19.4
2014-Apr-15 14:43 264 2 gusting 8 19.4
2014-Apr-15 14:33 315 4 gusting 8 18.3
2014-Apr-15 14:23 197 2 gusting 6 17.8
2014-Apr-15 14:13 186 4 gusting 6 17.8
2014-Apr-15 14:03 225 5 gusting 6 18.3
2014-Apr-15 13:53 233 4 gusting 8 18.3
2014-Apr-15 13:43 177 2 gusting 10 18.3
2014-Apr-15 13:33 225 2 gusting 5 19.4
2014-Apr-15 13:23 062 2 gusting 7 19.4
2014-Apr-15 13:13 178 2 gusting 8 19.4
2014-Apr-15 13:03 016 1 gusting 12 18.9
2014-Apr-15 12:53 137 1 gusting 6 18.9
2014-Apr-15 12:43 173 1 gusting 7 20.0
2014-Apr-15 12:33 348 1 gusting 6 21.1
2014-Apr-15 12:23 225 3 gusting 6 21.1
2014-Apr-15 12:13 185 1 gusting 6 21.1
2014-Apr-15 12:03 180 0 gusting 5 20.6
2014-Apr-15 11:53 169 2 gusting 7 20.6
2014-Apr-15 11:43 149 3 gusting 11 20.6
2014-Apr-15 11:33 270 1 gusting 8 20.0
2014-Apr-15 11:23 033 4 gusting 11 20.0
2014-Apr-15 11:13 334 1 gusting 11 20.0
2014-Apr-15 11:03 182 4 gusting 10 20.0
2014-Apr-15 10:53 010 2 gusting 10 20.0
2014-Apr-15 10:43 212 1 gusting 6 20.6
2014-Apr-15 10:33 172 3 gusting 11 20.6
2014-Apr-15 10:23 218 3 gusting 7 20.0
2014-Apr-15 10:13 277 2 gusting 6 20.6
2014-Apr-15 10:03 270 2 gusting 11 20.0
2014-Apr-15 09:53 180 4 gusting 8 20.0
2014-Apr-15 09:43 163 5 gusting 8 19.4
2014-Apr-15 09:33 176 4 gusting 12 19.4
2014-Apr-15 09:23 280 3 gusting 12 18.9
2014-Apr-15 09:13 180 2 gusting 12 18.9
2014-Apr-15 09:03 198 5 gusting 8 18.9
2014-Apr-15 08:53 242 4 gusting 10 18.9
2014-Apr-15 08:43 180 2 gusting 8 18.3
2014-Apr-15 08:33 219 4 gusting 10 18.3
2014-Apr-15 08:23 188 5 gusting 11 17.8
2014-Apr-15 08:13 278 5 gusting 10 17.8
2014-Apr-15 08:03 202 2 gusting 10 17.8
2014-Apr-15 07:53 152 4 gusting 8 17.2
2014-Apr-15 07:43 215 5 gusting 8 17.2
2014-Apr-15 07:33 174 4 gusting 8 16.7
2014-Apr-15 07:23 207 2 gusting 8 16.7
2014-Apr-15 07:13 191 3 gusting 7 16.7
2014-Apr-15 07:03 191 3 gusting 7 16.1
2014-Apr-15 06:53 162 2 gusting 8 16.1
2014-Apr-15 06:43 257 3 gusting 6 15.6
2014-Apr-15 06:33 100 2 gusting 7 15.0
2014-Apr-15 06:23 195 2 gusting 6 13.9
2014-Apr-15 06:13 216 2 gusting 6 12.8
2014-Apr-15 06:03 180 1 gusting 6 12.2
2014-Apr-15 05:53 225 1 gusting 6 11.7
2014-Apr-15 05:43 180 1 gusting 5 11.1
2014-Apr-15 05:33 090 1 gusting 2 11.7
2014-Apr-14 21:23 090 1 gusting 2 12.2
2014-Apr-14 21:13 188 0 gusting 2 12.2
2014-Apr-14 21:03 229 0 gusting 2 12.2
2014-Apr-14 20:53 225 0 gusting 2 12.2
2014-Apr-14 20:43 135 0 gusting 2 12.2
2014-Apr-14 20:33 142 0 gusting 1 12.8
2014-Apr-14 20:23 122 0 gusting 2 13.3
2014-Apr-14 20:13 225 1 gusting 4 13.3
2014-Apr-14 20:03 225 0 gusting 2 13.3
2014-Apr-14 19:53 292 0 gusting 4 13.9
2014-Apr-14 19:43 225 0 gusting 2 13.9
2014-Apr-14 19:33 205 1 gusting 4 13.9
2014-Apr-14 19:23 233 0 gusting 1 13.9
2014-Apr-14 19:13 157 0 gusting 1 13.9
2014-Apr-14 19:03 135 0 gusting 1 14.4